createdAt,value
2023-05-25T00:01:01.314Z,16.90
2023-05-25T00:03:31.728Z,15.30
2023-05-25T00:06:02.482Z,16.50
2023-05-25T00:10:57.466Z,13.40
2023-05-25T00:13:25.620Z,14.10
2023-05-25T00:15:53.220Z,15.30
2023-05-25T00:18:20.380Z,15.00
2023-05-25T00:20:47.958Z,14.50
2023-05-25T00:23:15.279Z,14.20
2023-05-25T00:25:42.708Z,13.80
2023-05-25T00:28:11.553Z,23.10
2023-05-25T00:30:39.162Z,16.20
2023-05-25T00:33:07.054Z,18.90
2023-05-25T00:35:34.506Z,20.50
2023-05-25T00:38:01.587Z,20.00
2023-05-25T00:40:28.705Z,17.80
2023-05-25T00:42:56.213Z,14.30
2023-05-25T00:45:23.634Z,13.80
2023-05-25T00:47:51.746Z,13.90
2023-05-25T00:50:19.575Z,11.20
2023-05-25T00:52:46.664Z,12.80
2023-05-25T00:55:13.766Z,14.40
2023-05-25T00:57:41.651Z,15.20
2023-05-25T01:00:13.385Z,12.80
2023-05-25T01:02:42.666Z,12.50
2023-05-25T01:05:10.230Z,12.40
2023-05-25T01:07:37.730Z,10.90
2023-05-25T01:10:09.236Z,8.90
2023-05-25T01:12:38.029Z,9.80
2023-05-25T01:15:06.632Z,11.00
2023-05-25T01:17:38.263Z,10.50
2023-05-25T01:20:11.677Z,12.00
2023-05-25T01:22:54.585Z,11.20
2023-05-25T01:25:29.032Z,12.10
2023-05-25T01:28:28.077Z,12.30
2023-05-25T01:30:55.777Z,8.20
2023-05-25T01:33:22.849Z,9.50
2023-05-25T01:35:51.274Z,9.40
2023-05-25T01:38:18.628Z,10.60
2023-05-25T01:40:45.701Z,10.80
2023-05-25T01:43:12.760Z,11.40
2023-05-25T01:45:39.932Z,11.10
2023-05-25T01:48:13.536Z,11.30
2023-05-25T01:51:01.446Z,9.00
2023-05-25T01:53:30.658Z,11.50
2023-05-25T01:56:05.348Z,14.10
2023-05-25T01:58:44.561Z,17.30
2023-05-25T02:01:14.179Z,19.40
2023-05-25T02:03:41.816Z,18.80
2023-05-25T02:06:09.261Z,21.20
2023-05-25T02:08:36.575Z,21.90
2023-05-25T02:11:04.194Z,17.30
2023-05-25T02:13:31.987Z,17.30
2023-05-25T02:15:59.675Z,16.50
2023-05-25T02:18:28.110Z,16.50
2023-05-25T02:20:55.351Z,17.60
2023-05-25T02:23:22.551Z,18.60
2023-05-25T02:25:51.848Z,17.40
2023-05-25T02:28:19.267Z,16.50
2023-05-25T02:30:46.433Z,13.10
2023-05-25T02:33:14.008Z,15.20
2023-05-25T02:35:42.029Z,54.50
2023-05-25T02:38:10.595Z,39.90
2023-05-25T02:40:39.019Z,31.70
2023-05-25T02:43:06.288Z,24.00
2023-05-25T02:45:33.890Z,23.70
2023-05-25T02:48:01.356Z,24.30
2023-05-25T02:50:29.232Z,19.10
2023-05-25T02:52:56.917Z,17.50
2023-05-25T02:55:26.243Z,32.80
2023-05-25T02:57:53.658Z,63.80
2023-05-25T03:00:42.958Z,64.80
2023-05-25T03:03:10.307Z,50.70
2023-05-25T03:05:38.690Z,43.70
2023-05-25T03:08:06.253Z,36.70
2023-05-25T03:10:35.093Z,27.40
2023-05-25T03:13:02.584Z,27.20
2023-05-25T03:15:30.775Z,27.60
2023-05-25T03:18:01.341Z,25.80
2023-05-25T03:20:29.939Z,24.50
2023-05-25T03:22:57.195Z,21.10
2023-05-25T03:25:24.871Z,15.70
2023-05-25T03:27:54.089Z,12.00
2023-05-25T03:30:22.449Z,8.20
2023-05-25T03:32:49.570Z,7.40
2023-05-25T03:35:16.866Z,8.30
2023-05-25T03:37:44.092Z,8.40
2023-05-25T03:40:12.085Z,9.40
2023-05-25T03:42:39.592Z,11.40
2023-05-25T03:45:09.289Z,12.00
2023-05-25T03:47:37.257Z,13.50
2023-05-25T03:50:06.107Z,10.10
2023-05-25T03:52:35.192Z,11.30
2023-05-25T03:55:04.715Z,12.30
2023-05-25T03:57:31.839Z,13.60
2023-05-25T03:59:59.441Z,14.50
2023-05-25T04:02:26.755Z,13.50
2023-05-25T04:04:57.141Z,15.00
2023-05-25T04:07:27.732Z,10.50
2023-05-25T04:09:54.874Z,13.50
2023-05-25T04:12:22.190Z,14.40
2023-05-25T04:14:49.382Z,14.50
2023-05-25T04:17:19.092Z,15.30
2023-05-25T04:19:46.574Z,14.60
2023-05-25T04:22:13.849Z,15.40
2023-05-25T04:24:42.106Z,11.70
2023-05-25T04:27:09.410Z,14.70
2023-05-25T04:29:38.343Z,14.60
2023-05-25T04:32:19.994Z,14.60
2023-05-25T04:34:52.426Z,17.50
2023-05-25T04:37:27.428Z,14.90
2023-05-25T04:39:57.789Z,15.60
2023-05-25T04:42:25.789Z,16.70
2023-05-25T04:44:57.449Z,15.70
2023-05-25T04:47:26.134Z,16.50
2023-05-25T04:49:54.550Z,15.90
2023-05-25T04:52:23.383Z,17.80
2023-05-25T04:54:51.777Z,19.90
2023-05-25T04:57:19.025Z,19.70
2023-05-25T04:59:46.997Z,21.80
2023-05-25T05:02:14.081Z,22.20
2023-05-25T05:04:41.614Z,15.40
2023-05-25T05:07:09.277Z,17.90
2023-05-25T05:09:36.951Z,20.00
2023-05-25T05:12:04.718Z,20.30
2023-05-25T05:14:36.697Z,20.30
2023-05-25T05:17:04.712Z,22.60
2023-05-25T05:19:33.349Z,22.20
2023-05-25T05:22:00.488Z,19.80
2023-05-25T05:24:27.724Z,23.20
2023-05-25T05:26:59.332Z,17.30
2023-05-25T05:29:37.714Z,19.10
2023-05-25T05:32:05.269Z,22.90
2023-05-25T05:34:33.502Z,23.20
2023-05-25T05:37:04.766Z,23.30
2023-05-25T05:39:32.121Z,22.60
2023-05-25T05:41:59.704Z,26.50
2023-05-25T05:44:29.335Z,25.00
2023-05-25T05:47:01.374Z,25.20
2023-05-25T05:49:29.864Z,24.60
2023-05-25T05:51:57.648Z,17.90
2023-05-25T05:54:24.861Z,19.40
2023-05-25T05:56:52.791Z,20.90
2023-05-25T05:59:21.464Z,23.40
2023-05-25T06:01:48.730Z,24.00
2023-05-25T06:04:16.207Z,22.80
2023-05-25T06:06:45.429Z,22.90
2023-05-25T06:09:12.918Z,20.80
2023-05-25T06:11:40.734Z,23.50
2023-05-25T06:14:08.280Z,24.00
2023-05-25T06:16:37.030Z,23.20
2023-05-25T06:19:04.929Z,24.10
2023-05-25T06:21:32.772Z,26.00
2023-05-25T06:23:59.749Z,18.10
2023-05-25T06:26:27.399Z,18.90
2023-05-25T06:28:54.785Z,20.90
2023-05-25T06:31:22.358Z,22.60
2023-05-25T06:33:49.515Z,23.30
2023-05-25T06:36:16.749Z,21.20
2023-05-25T06:38:44.105Z,22.40
2023-05-25T06:41:15.224Z,22.90
2023-05-25T06:43:43.097Z,23.80
2023-05-25T06:46:18.316Z,22.70
2023-05-25T06:48:46.242Z,21.70
2023-05-25T06:51:13.640Z,22.60
2023-05-25T06:53:41.394Z,21.70
2023-05-25T06:56:09.319Z,21.70
2023-05-25T06:58:36.803Z,21.80
2023-05-25T07:01:04.004Z,23.40
2023-05-25T07:03:32.832Z,23.00
2023-05-25T07:05:59.960Z,22.10
2023-05-25T07:08:27.020Z,22.20
2023-05-25T07:10:54.340Z,23.10
2023-05-25T07:13:22.004Z,21.90
2023-05-25T07:15:49.502Z,22.60
2023-05-25T07:18:16.636Z,20.90
2023-05-25T07:20:44.127Z,21.50
2023-05-25T07:23:11.852Z,21.10
2023-05-25T07:25:39.002Z,21.70
2023-05-25T07:28:06.923Z,20.70
2023-05-25T07:30:34.654Z,20.40
2023-05-25T07:33:02.276Z,18.80
2023-05-25T07:35:29.574Z,18.90
2023-05-25T07:38:00.702Z,18.30
2023-05-25T07:40:29.264Z,18.50
2023-05-25T07:42:56.343Z,19.30
2023-05-25T07:45:23.492Z,18.60
2023-05-25T07:47:50.759Z,18.50
2023-05-25T07:50:17.991Z,17.00
2023-05-25T07:52:45.167Z,18.30
2023-05-25T07:55:12.213Z,17.90
2023-05-25T07:57:40.042Z,17.80
2023-05-25T08:00:11.269Z,17.10
2023-05-25T08:02:42.650Z,17.30
2023-05-25T08:05:10.235Z,17.20
2023-05-25T08:07:38.248Z,17.20
2023-05-25T08:10:06.717Z,17.50
2023-05-25T08:12:47.965Z,16.20
2023-05-25T08:15:16.879Z,15.60
2023-05-25T08:17:44.515Z,15.20
2023-05-25T08:20:12.280Z,16.20
2023-05-25T08:22:40.240Z,15.80
2023-05-25T08:25:08.213Z,15.50
2023-05-25T08:27:36.747Z,16.00
2023-05-25T08:30:06.089Z,15.20
2023-05-25T08:32:33.659Z,15.60
2023-05-25T08:35:02.049Z,15.10
2023-05-25T08:37:30.639Z,15.20
2023-05-25T08:39:58.012Z,15.20
2023-05-25T08:42:25.138Z,15.40
2023-05-25T08:44:52.282Z,14.90
2023-05-25T08:47:20.567Z,14.70
2023-05-25T08:49:48.829Z,14.50
2023-05-25T08:52:21.878Z,14.40
2023-05-25T08:54:51.201Z,16.00
2023-05-25T08:57:26.176Z,14.30
2023-05-25T09:00:13.109Z,13.30
2023-05-25T09:03:29.203Z,13.20
2023-05-25T09:05:58.164Z,12.70
2023-05-25T09:08:25.684Z,12.10
2023-05-25T09:10:52.871Z,13.00
2023-05-25T09:13:22.895Z,12.50
2023-05-25T09:15:50.804Z,12.80
2023-05-25T09:18:17.949Z,11.90
2023-05-25T09:20:47.119Z,12.10
2023-05-25T09:25:42.634Z,11.30
2023-05-25T09:28:25.469Z,11.60
2023-05-25T09:30:54.805Z,11.70
2023-05-25T09:33:21.915Z,12.50
2023-05-25T09:35:49.257Z,13.70
2023-05-25T09:38:17.039Z,12.00
2023-05-25T09:40:44.808Z,12.30
2023-05-25T09:43:15.758Z,11.90
2023-05-25T09:45:49.482Z,13.60
2023-05-25T09:48:17.961Z,12.10
2023-05-25T09:50:48.045Z,11.70
2023-05-25T09:53:18.482Z,12.40
2023-05-25T09:58:18.296Z,10.80
2023-05-25T10:00:46.521Z,10.70
2023-05-25T10:03:15.572Z,10.50
2023-05-25T10:05:42.748Z,10.40
2023-05-25T10:08:10.048Z,10.90
2023-05-25T10:10:37.555Z,10.50
2023-05-25T10:13:05.100Z,10.90
2023-05-25T10:15:32.157Z,9.90
2023-05-25T10:17:59.455Z,9.20
2023-05-25T10:20:56.260Z,9.20
2023-05-25T10:23:15.159Z,7.40
2023-05-25T10:25:46.089Z,8.30
2023-05-25T10:28:28.450Z,10.50
2023-05-25T10:30:56.999Z,7.90
2023-05-25T10:33:24.163Z,9.00
2023-05-25T10:36:02.954Z,8.50
2023-05-25T10:38:37.841Z,8.10
2023-05-25T10:43:35.211Z,7.60
2023-05-25T10:46:02.381Z,7.80
2023-05-25T10:48:36.762Z,7.40
2023-05-25T10:51:04.328Z,7.20
2023-05-25T10:53:31.961Z,7.00
2023-05-25T10:56:10.067Z,7.10
2023-05-25T10:58:41.358Z,7.30
2023-05-25T11:01:09.808Z,6.90
2023-05-25T11:03:56.870Z,7.40
2023-05-25T11:06:47.162Z,7.80
2023-05-25T11:09:33.304Z,7.80
2023-05-25T11:12:02.468Z,7.70
2023-05-25T11:14:31.510Z,8.70
2023-05-25T11:17:11.813Z,7.70
2023-05-25T11:19:54.079Z,8.10
2023-05-25T11:22:30.899Z,7.30
2023-05-25T11:25:00.215Z,7.40
2023-05-25T11:27:31.032Z,7.30
2023-05-25T11:29:58.902Z,6.30
2023-05-25T11:32:27.131Z,7.20
2023-05-25T11:34:55.315Z,6.70
2023-05-25T11:37:24.951Z,6.30
2023-05-25T11:39:52.636Z,7.20
2023-05-25T11:42:24.308Z,6.20
2023-05-25T11:45:38.495Z,7.10
2023-05-25T11:48:06.179Z,5.80
2023-05-25T11:50:34.147Z,6.00
2023-05-25T11:53:06.094Z,6.10
2023-05-25T11:55:34.544Z,8.00
2023-05-25T11:58:02.303Z,6.80
2023-05-25T12:00:29.664Z,6.00
2023-05-25T12:02:57.795Z,5.60
2023-05-25T12:05:25.185Z,6.20
2023-05-25T12:07:52.368Z,5.70
2023-05-25T12:10:19.548Z,6.10
2023-05-25T12:12:51.053Z,6.10
2023-05-25T12:15:21.953Z,5.80
2023-05-25T12:17:49.278Z,5.70
2023-05-25T12:20:17.003Z,5.90
2023-05-25T12:22:45.015Z,6.30
2023-05-25T12:25:12.682Z,5.90
2023-05-25T12:27:43.914Z,5.90
2023-05-25T12:30:11.575Z,8.40
2023-05-25T12:32:53.148Z,5.20
2023-05-25T12:35:20.491Z,5.80
2023-05-25T12:41:06.769Z,8.30
2023-05-25T12:43:43.148Z,7.70
2023-05-25T12:46:10.726Z,6.30
2023-05-25T12:48:38.896Z,5.70
2023-05-25T12:51:10.141Z,6.00
2023-05-25T12:53:50.603Z,5.30
2023-05-25T12:56:17.870Z,5.60
2023-05-25T12:58:45.064Z,5.40
2023-05-25T13:01:12.501Z,5.50
2023-05-25T13:03:39.831Z,5.00
2023-05-25T13:06:07.150Z,5.00
2023-05-25T13:08:34.769Z,5.50
2023-05-25T13:11:03.873Z,5.00
2023-05-25T13:13:31.149Z,5.10
2023-05-25T13:15:58.561Z,4.90
2023-05-25T13:18:26.735Z,5.40
2023-05-25T13:20:56.496Z,5.20
2023-05-25T13:23:25.230Z,5.30
2023-05-25T13:25:52.462Z,4.90
2023-05-25T13:28:19.687Z,5.20
2023-05-25T13:30:47.113Z,4.80
2023-05-25T13:33:14.353Z,4.60
2023-05-25T13:35:46.441Z,4.50
2023-05-25T13:38:15.855Z,3.90
2023-05-25T13:40:45.053Z,4.00
2023-05-25T13:43:12.139Z,4.00
2023-05-25T13:45:41.851Z,4.80
2023-05-25T13:48:09.634Z,4.40
2023-05-25T13:50:40.484Z,4.20
2023-05-25T13:53:07.473Z,3.90
2023-05-25T13:55:36.113Z,3.70
2023-05-25T13:58:05.048Z,3.90
2023-05-25T14:00:33.046Z,4.20
2023-05-25T14:03:00.522Z,3.50
2023-05-25T14:05:28.652Z,4.30
2023-05-25T14:07:56.773Z,3.50
2023-05-25T14:10:24.180Z,4.50
2023-05-25T14:12:51.757Z,5.00
2023-05-25T14:15:19.041Z,4.40
2023-05-25T14:17:46.208Z,4.80
2023-05-25T14:20:16.345Z,4.40
2023-05-25T14:22:43.564Z,4.70
2023-05-25T14:25:10.672Z,4.40
2023-05-25T14:27:38.791Z,3.90
2023-05-25T14:30:07.521Z,4.20
2023-05-25T14:32:50.088Z,4.00
2023-05-25T14:35:17.504Z,4.00
2023-05-25T14:37:44.617Z,4.30
2023-05-25T14:40:12.488Z,3.60
2023-05-25T14:42:40.497Z,3.70
2023-05-25T14:45:10.074Z,3.50
2023-05-25T14:47:38.792Z,3.80
2023-05-25T14:50:06.810Z,3.80
2023-05-25T14:52:34.241Z,3.70
2023-05-25T14:55:01.321Z,3.60
2023-05-25T14:57:28.532Z,3.60
2023-05-25T14:59:56.171Z,3.70
2023-05-25T15:02:23.323Z,3.40
2023-05-25T15:04:50.954Z,3.90
2023-05-25T15:07:18.161Z,4.20
2023-05-25T15:09:45.579Z,4.10
2023-05-25T15:12:13.143Z,3.70
2023-05-25T15:14:42.400Z,3.90
2023-05-25T15:17:09.982Z,4.30
2023-05-25T15:19:37.479Z,4.50
2023-05-25T15:22:04.884Z,4.10
2023-05-25T15:24:32.682Z,4.50
2023-05-25T15:26:59.864Z,5.20
2023-05-25T15:29:27.155Z,5.30
2023-05-25T15:31:54.377Z,5.30
2023-05-25T15:34:22.497Z,5.90
2023-05-25T15:36:49.703Z,5.50
2023-05-25T15:39:16.769Z,5.40
2023-05-25T15:41:43.874Z,4.80
2023-05-25T15:44:12.848Z,5.20
2023-05-25T15:46:41.206Z,5.60
2023-05-25T15:49:11.373Z,5.50
2023-05-25T15:54:08.018Z,5.50
2023-05-25T15:56:36.352Z,5.90
2023-05-25T15:59:04.046Z,5.70
2023-05-25T16:01:36.924Z,4.80
2023-05-25T16:04:04.697Z,4.70
2023-05-25T16:06:32.263Z,5.10
2023-05-25T16:08:59.350Z,4.70
2023-05-25T16:11:31.792Z,4.90
2023-05-25T16:13:59.328Z,4.60
2023-05-25T16:16:26.649Z,5.10
2023-05-25T16:18:54.224Z,4.80
2023-05-25T16:21:21.738Z,5.20
2023-05-25T16:23:48.744Z,6.70
2023-05-25T16:26:17.646Z,6.10
2023-05-25T16:28:44.889Z,6.10
2023-05-25T16:31:13.558Z,5.80
2023-05-25T16:33:42.013Z,6.10
2023-05-25T16:36:09.070Z,6.80
2023-05-25T16:38:36.190Z,7.00
2023-05-25T16:41:03.260Z,6.10
2023-05-25T16:43:30.925Z,6.60
2023-05-25T16:45:58.273Z,7.00
2023-05-25T16:48:26.287Z,8.00
2023-05-25T16:50:53.389Z,7.40
2023-05-25T16:53:20.419Z,7.60
2023-05-25T16:55:47.609Z,6.60
2023-05-25T16:58:14.858Z,6.10
2023-05-25T17:00:42.766Z,6.30
2023-05-25T17:03:10.050Z,5.40
2023-05-25T17:05:37.355Z,5.40
2023-05-25T17:08:04.472Z,5.50
2023-05-25T17:10:32.034Z,6.00
2023-05-25T17:12:59.229Z,5.40
2023-05-25T17:15:26.910Z,5.70
2023-05-25T17:17:54.335Z,5.00
2023-05-25T17:20:21.529Z,5.20
2023-05-25T17:22:49.886Z,4.80
2023-05-25T17:25:17.039Z,5.20
2023-05-25T17:27:44.155Z,4.80
2023-05-25T17:30:11.808Z,5.10
2023-05-25T17:32:41.156Z,5.00
2023-05-25T17:35:09.036Z,5.30
2023-05-25T17:37:36.418Z,5.30
2023-05-25T17:40:05.050Z,4.60
2023-05-25T17:42:32.393Z,5.10
2023-05-25T17:44:59.633Z,5.00
2023-05-25T17:47:27.480Z,5.20
2023-05-25T17:49:54.588Z,5.00
2023-05-25T17:52:23.281Z,5.00
2023-05-25T17:54:53.550Z,5.00
2023-05-25T17:57:20.734Z,4.90
2023-05-25T17:59:47.917Z,5.40
2023-05-25T18:02:15.187Z,4.90
2023-05-25T18:04:42.353Z,5.00
2023-05-25T18:07:09.408Z,5.30
2023-05-25T18:09:36.503Z,5.20
2023-05-25T18:12:03.829Z,5.60
2023-05-25T18:14:35.313Z,5.50
2023-05-25T18:17:02.848Z,5.70
2023-05-25T18:19:30.153Z,6.20
2023-05-25T18:21:57.517Z,5.30
2023-05-25T18:24:24.720Z,5.60
2023-05-25T18:26:51.805Z,5.60
2023-05-25T18:29:19.039Z,5.50
2023-05-25T18:31:48.859Z,6.00
2023-05-25T18:34:16.372Z,5.80
2023-05-25T18:36:46.557Z,6.10
2023-05-25T18:39:13.605Z,5.90
2023-05-25T18:41:42.355Z,5.10
2023-05-25T18:44:10.067Z,5.90
2023-05-25T18:46:40.799Z,5.40
2023-05-25T18:49:08.143Z,5.10
2023-05-25T18:51:35.285Z,5.80
2023-05-25T18:54:02.806Z,5.90
2023-05-25T18:56:30.031Z,5.80
2023-05-25T18:58:57.236Z,5.60
2023-05-25T19:01:25.641Z,5.90
2023-05-25T19:03:56.002Z,5.10
2023-05-25T19:06:25.593Z,5.50
2023-05-25T19:08:52.696Z,5.10
2023-05-25T19:11:20.377Z,5.60
2023-05-25T19:13:48.114Z,6.10
2023-05-25T19:16:15.358Z,5.90
2023-05-25T19:18:42.548Z,5.50
2023-05-25T19:21:09.871Z,5.30
2023-05-25T19:23:37.364Z,5.10
2023-05-25T19:26:04.462Z,5.40
2023-05-25T19:28:32.236Z,5.00
2023-05-25T19:30:59.552Z,5.80
2023-05-25T19:33:26.834Z,5.20
2023-05-25T19:35:53.996Z,6.30
2023-05-25T19:40:48.429Z,6.00
2023-05-25T19:43:15.970Z,6.10
2023-05-25T19:45:44.025Z,5.60
2023-05-25T19:48:11.591Z,5.80
2023-05-25T19:50:38.938Z,5.80
2023-05-25T19:53:06.920Z,5.60
2023-05-25T19:55:36.937Z,5.40
2023-05-25T19:58:04.278Z,5.40
2023-05-25T20:00:32.379Z,6.50
2023-05-25T20:02:59.606Z,6.00
2023-05-25T20:05:27.058Z,6.00
2023-05-25T20:07:56.667Z,6.00
2023-05-25T20:10:23.939Z,5.80
2023-05-25T20:12:51.279Z,6.20
2023-05-25T20:15:18.583Z,6.30
2023-05-25T20:17:45.736Z,5.90
2023-05-25T20:20:13.064Z,6.00
2023-05-25T20:22:41.152Z,5.40
2023-05-25T20:25:08.430Z,6.00
2023-05-25T20:27:35.698Z,6.50
2023-05-25T20:30:03.286Z,6.30
2023-05-25T20:32:31.530Z,6.20
2023-05-25T20:34:58.661Z,6.40
2023-05-25T20:37:25.824Z,6.50
2023-05-25T20:39:52.957Z,6.20
2023-05-25T20:42:19.953Z,7.80
2023-05-25T20:44:47.246Z,6.00
2023-05-25T20:47:14.286Z,5.70
2023-05-25T20:49:41.681Z,6.30
2023-05-25T20:52:08.689Z,6.30
2023-05-25T20:54:36.957Z,5.40
2023-05-25T20:57:04.505Z,6.60
2023-05-25T20:59:32.128Z,6.60
2023-05-25T21:01:59.492Z,5.80
2023-05-25T21:04:27.062Z,6.20
2023-05-25T21:06:54.396Z,6.20
2023-05-25T21:09:22.493Z,6.50
2023-05-25T21:11:49.787Z,4.90
2023-05-25T21:14:16.907Z,5.20
2023-05-25T21:16:44.366Z,5.80
2023-05-25T21:19:11.986Z,5.50
2023-05-25T21:21:39.349Z,6.30
2023-05-25T21:24:06.598Z,5.80
2023-05-25T21:26:33.794Z,6.10
2023-05-25T21:29:00.973Z,6.20
2023-05-25T21:31:28.190Z,6.20
2023-05-25T21:33:55.415Z,6.20
2023-05-25T21:36:22.569Z,6.20
2023-05-25T21:38:49.617Z,7.00
2023-05-25T21:41:17.146Z,6.20
2023-05-25T21:43:44.247Z,4.40
2023-05-25T21:46:11.272Z,5.00
2023-05-25T21:48:38.925Z,5.60
2023-05-25T21:51:06.156Z,6.00
2023-05-25T21:53:33.660Z,6.30
2023-05-25T21:56:00.971Z,6.30
2023-05-25T21:58:28.120Z,6.20
2023-05-25T22:00:55.618Z,6.30
2023-05-25T22:03:22.819Z,5.70
2023-05-25T22:05:52.758Z,7.00
2023-05-25T22:08:20.000Z,6.20
2023-05-25T22:10:47.060Z,5.70
2023-05-25T22:13:14.327Z,6.40
2023-05-25T22:15:41.488Z,6.90
2023-05-25T22:18:08.594Z,5.70
2023-05-25T22:20:39.024Z,6.10
2023-05-25T22:23:06.284Z,6.50
2023-05-25T22:25:33.503Z,6.80
2023-05-25T22:28:00.883Z,5.10
2023-05-25T22:30:28.648Z,5.40
2023-05-25T22:32:55.837Z,6.00
2023-05-25T22:35:23.469Z,6.30
2023-05-25T22:37:50.611Z,5.90
2023-05-25T22:40:17.815Z,6.60
2023-05-25T22:42:50.097Z,6.20
2023-05-25T22:45:18.278Z,6.40
2023-05-25T22:47:47.453Z,6.70
2023-05-25T22:50:14.545Z,6.40
2023-05-25T22:52:41.737Z,7.00
2023-05-25T22:55:12.732Z,6.20
2023-05-25T22:57:40.487Z,6.60
2023-05-25T23:00:08.565Z,7.10
2023-05-25T23:02:36.856Z,6.80
2023-05-25T23:05:05.428Z,7.10
2023-05-25T23:07:32.867Z,6.90
2023-05-25T23:10:00.359Z,6.90
2023-05-25T23:12:27.648Z,6.70
2023-05-25T23:14:56.637Z,6.40
2023-05-25T23:17:23.706Z,7.00
2023-05-25T23:19:50.911Z,7.40
2023-05-25T23:22:17.930Z,7.40
2023-05-25T23:24:45.125Z,7.60
2023-05-25T23:27:12.523Z,6.00
2023-05-25T23:29:40.084Z,6.10
2023-05-25T23:32:07.244Z,6.40
2023-05-25T23:34:35.868Z,7.40
2023-05-25T23:37:06.294Z,7.80
2023-05-25T23:39:34.041Z,7.90
2023-05-25T23:42:02.231Z,7.50
2023-05-25T23:44:29.485Z,8.90
2023-05-25T23:46:56.908Z,8.80
2023-05-25T23:49:24.089Z,9.10
2023-05-25T23:51:51.323Z,8.50
2023-05-25T23:54:18.507Z,10.90
2023-05-25T23:56:45.699Z,8.20
2023-05-25T23:59:15.227Z,9.50
